Maryfield, Canada
Current Conditions -  °F | °C
As of 12:00 AM on Saturday 25 Oct 2014 (Local Time) from CYBR Reporting Station
Clear Clear  
Wind Chill: 33°   Ceiling: Unl
Heat Index: 41°   Visibility: 15mi
Dew Point: 32°   Wind: 14mph
Humidity: 70%   Direction: 260°W
Pressure: 29.92"   Gusts: NA
Location:  49.83°N, 101.53°W
Report Text: CYBR 250600Z 26012KT 15SM SKC 05/M00 A2992 RMK SLP144
Loading
Personal Weather Stations






























Interactive Weather Map
Tropical Storm Tracking
New forecast layout! Learn more

10-Day Weather Forecast

Advertisements
Track Severe Weather on mobile